createdAt,value
2019-05-07T00:01:54.795Z,8.23
2019-05-07T00:06:55.112Z,7.70
2019-05-07T00:11:57.050Z,8.67
2019-05-07T00:17:04.570Z,8.43
2019-05-07T00:22:09.791Z,8.97
2019-05-07T00:27:13.123Z,8.83
2019-05-07T00:32:15.056Z,8.80
2019-05-07T00:37:36.518Z,8.63
2019-05-07T00:42:56.980Z,8.73
2019-05-07T00:47:58.892Z,8.80
2019-05-07T00:53:02.119Z,9.60
2019-05-07T00:58:04.117Z,8.67
2019-05-07T01:03:05.943Z,9.30
2019-05-07T01:08:07.872Z,9.70
2019-05-07T01:13:12.024Z,9.03
2019-05-07T01:18:13.600Z,9.03
2019-05-07T01:23:15.533Z,8.47
2019-05-07T01:28:17.466Z,9.20
2019-05-07T01:33:27.332Z,9.27
2019-05-07T01:38:29.252Z,10.13
2019-05-07T01:43:32.130Z,11.30
2019-05-07T01:48:34.269Z,10.23
2019-05-07T01:53:36.153Z,9.70
2019-05-07T01:58:38.073Z,10.37
2019-05-07T02:04:12.762Z,11.37
2019-05-07T02:09:27.276Z,11.30
2019-05-07T02:14:29.335Z,11.17
2019-05-07T02:19:32.910Z,11.37
2019-05-07T02:24:35.163Z,10.87
2019-05-07T02:29:38.232Z,9.83
2019-05-07T02:34:44.257Z,11.00
2019-05-07T02:39:53.252Z,11.57
2019-05-07T02:45:17.526Z,10.27
2019-05-07T02:50:34.029Z,10.93
2019-05-07T02:55:43.544Z,11.37
2019-05-07T03:00:48.305Z,11.87
2019-05-07T03:05:53.768Z,11.30
2019-05-07T03:10:58.035Z,11.70
2019-05-07T03:16:03.524Z,10.70
2019-05-07T03:21:24.083Z,11.20
2019-05-07T03:26:29.070Z,11.80
2019-05-07T03:31:49.345Z,11.23
2019-05-07T03:36:56.439Z,11.40
2019-05-07T03:41:56.678Z,11.23
2019-05-07T03:47:15.106Z,11.83
2019-05-07T03:52:17.246Z,11.03
2019-05-07T03:57:19.193Z,10.73
2019-05-07T04:02:23.930Z,11.53
2019-05-07T04:07:24.936Z,10.63
2019-05-07T04:12:29.897Z,10.90
2019-05-07T04:17:33.914Z,11.13
2019-05-07T04:22:36.060Z,11.23
2019-05-07T04:27:47.192Z,11.03
2019-05-07T04:32:54.141Z,11.90
2019-05-07T04:38:01.578Z,11.50
2019-05-07T04:43:02.718Z,11.30
2019-05-07T04:48:06.578Z,11.47
2019-05-07T04:53:08.626Z,11.50
2019-05-07T04:58:13.743Z,11.40
2019-05-07T05:03:19.943Z,11.70
2019-05-07T05:08:25.679Z,11.93
2019-05-07T05:13:27.788Z,11.80
2019-05-07T05:18:29.682Z,12.20
2019-05-07T05:24:08.839Z,13.13
2019-05-07T05:29:19.463Z,12.83
2019-05-07T05:34:22.877Z,12.97
2019-05-07T05:39:24.777Z,13.67
2019-05-07T05:44:32.046Z,12.97
2019-05-07T05:49:34.242Z,13.97
2019-05-07T05:54:56.552Z,12.87
2019-05-07T06:00:16.508Z,12.50
2019-05-07T06:05:38.302Z,11.67
2019-05-07T06:10:51.880Z,9.70
2019-05-07T06:16:03.151Z,10.10
2019-05-07T06:21:16.163Z,8.40
2019-05-07T06:26:18.197Z,7.80
2019-05-07T06:31:23.069Z,6.00
2019-05-07T06:36:33.568Z,6.47
2019-05-07T06:42:03.969Z,6.60
2019-05-07T06:47:05.941Z,5.93
2019-05-07T06:52:08.063Z,5.23
2019-05-07T06:57:09.996Z,5.27
2019-05-07T07:02:32.851Z,5.27
2019-05-07T07:07:52.558Z,5.57
2019-05-07T07:12:54.530Z,6.57
2019-05-07T07:17:56.451Z,9.60
2019-05-07T07:22:58.406Z,8.40
2019-05-07T07:28:02.837Z,9.07
2019-05-07T07:33:07.870Z,9.03
2019-05-07T07:38:27.906Z,10.07
2019-05-07T07:43:29.953Z,11.07
2019-05-07T07:48:32.245Z,11.93
2019-05-07T07:53:35.567Z,10.83
2019-05-07T07:59:12.723Z,11.00
2019-05-07T08:04:19.133Z,12.00
2019-05-07T08:09:24.008Z,11.43
2019-05-07T08:14:25.660Z,12.40
2019-05-07T08:19:27.607Z,13.13
2019-05-07T08:24:34.848Z,12.37
2019-05-07T08:29:37.063Z,13.03
2019-05-07T08:34:43.830Z,13.50
2019-05-07T08:39:45.755Z,12.37
2019-05-07T08:45:02.898Z,11.63
2019-05-07T08:50:05.127Z,12.67
2019-05-07T08:55:07.089Z,12.00
2019-05-07T09:00:09.600Z,12.10
2019-05-07T09:05:13.055Z,13.30
2019-05-07T09:10:14.938Z,14.67
2019-05-07T09:15:16.846Z,13.87
2019-05-07T09:20:18.745Z,14.73
2019-05-07T09:25:22.313Z,13.27
2019-05-07T09:30:44.195Z,13.90
2019-05-07T09:35:52.862Z,13.07
2019-05-07T09:40:56.983Z,14.13
2019-05-07T09:46:02.672Z,13.47
2019-05-07T09:51:06.640Z,12.10
2019-05-07T09:56:08.687Z,14.77
2019-05-07T10:01:12.545Z,13.73
2019-05-07T10:06:18.791Z,16.27
2019-05-07T10:11:39.467Z,14.30
2019-05-07T10:17:06.617Z,14.00
2019-05-07T10:22:12.593Z,13.40
2019-05-07T10:27:15.608Z,13.00
2019-05-07T10:32:17.510Z,16.10
2019-05-07T10:37:19.804Z,14.30
2019-05-07T10:42:22.728Z,12.93
2019-05-07T10:47:38.142Z,13.43
2019-05-07T10:52:42.479Z,11.00
2019-05-07T10:57:44.657Z,12.20
2019-05-07T11:02:46.905Z,11.63
2019-05-07T11:07:48.936Z,12.50
2019-05-07T11:12:51.714Z,11.90
2019-05-07T11:18:06.354Z,12.63
2019-05-07T11:23:08.696Z,13.33
2019-05-07T11:28:12.462Z,14.33
2019-05-07T11:33:16.300Z,14.37
2019-05-07T11:38:21.553Z,14.00
2019-05-07T11:43:44.574Z,13.43
2019-05-07T11:48:54.696Z,15.00
2019-05-07T11:54:09.721Z,13.77
2019-05-07T11:59:13.476Z,14.53
2019-05-07T12:04:18.408Z,14.73
2019-05-07T12:09:22.456Z,14.67
2019-05-07T12:14:30.923Z,15.93
2019-05-07T12:19:32.924Z,15.13
2019-05-07T12:24:34.743Z,15.27
2019-05-07T12:29:36.640Z,15.30
2019-05-07T12:34:45.942Z,16.90
2019-05-07T12:39:47.856Z,15.73
2019-05-07T12:44:51.750Z,16.43
2019-05-07T12:49:53.783Z,18.47
2019-05-07T12:55:03.332Z,17.73
2019-05-07T13:00:24.408Z,15.40
2019-05-07T13:05:26.713Z,15.77
2019-05-07T13:10:32.652Z,14.33
2019-05-07T13:15:34.588Z,14.50
2019-05-07T13:20:36.489Z,14.03
2019-05-07T13:25:38.450Z,15.17
2019-05-07T13:30:43.904Z,16.30
2019-05-07T13:35:46.206Z,17.00
2019-05-07T13:41:02.189Z,16.37
2019-05-07T13:46:12.214Z,17.43
2019-05-07T13:51:16.510Z,16.43
2019-05-07T13:56:22.473Z,14.73
2019-05-07T14:01:50.257Z,15.40
2019-05-07T14:06:52.992Z,15.90
2019-05-07T14:11:57.570Z,14.57
2019-05-07T14:16:59.491Z,14.23
2019-05-07T14:22:13.912Z,11.80
2019-05-07T14:27:05.240Z,13.60
2019-05-07T14:32:32.699Z,13.40
2019-05-07T14:37:41.829Z,13.73
2019-05-07T14:42:49.264Z,14.53
2019-05-07T14:47:52.210Z,14.77
2019-05-07T14:52:55.199Z,14.33
2019-05-07T14:57:59.282Z,13.60
2019-05-07T15:03:01.927Z,13.83
2019-05-07T15:08:10.604Z,12.57
2019-05-07T15:13:12.576Z,13.43
2019-05-07T15:18:22.764Z,15.10
2019-05-07T15:23:31.444Z,13.37
2019-05-07T15:28:34.697Z,12.50
2019-05-07T15:33:36.691Z,13.30
2019-05-07T15:38:42.878Z,12.17
2019-05-07T15:43:46.948Z,11.83
2019-05-07T15:48:48.954Z,11.43
2019-05-07T15:53:55.107Z,10.83
2019-05-07T15:58:59.067Z,11.07
2019-05-07T16:04:02.770Z,10.93
2019-05-07T16:09:08.039Z,11.20
2019-05-07T16:14:32.069Z,10.57
2019-05-07T16:19:34.146Z,10.00
2019-05-07T16:24:36.155Z,10.27
2019-05-07T16:29:42.036Z,9.80
2019-05-07T16:34:44.135Z,10.80
2019-05-07T16:39:45.935Z,11.00
2019-05-07T16:44:48.074Z,11.23
2019-05-07T16:49:52.574Z,12.10
2019-05-07T16:54:54.773Z,12.30
2019-05-07T16:59:58.481Z,13.38
2019-05-07T17:05:12.576Z,12.40
2019-05-07T17:10:14.666Z,12.43
2019-05-07T17:15:17.136Z,12.80
2019-05-07T17:20:19.075Z,12.77
2019-05-07T17:25:36.398Z,12.97
2019-05-07T17:30:38.320Z,12.07
2019-05-07T17:35:42.323Z,11.20
2019-05-07T17:40:44.392Z,11.13
2019-05-07T17:45:48.369Z,12.40
2019-05-07T17:51:17.201Z,12.47
2019-05-07T17:56:19.513Z,13.17
2019-05-07T18:01:28.451Z,14.63
2019-05-07T18:06:32.148Z,13.50
2019-05-07T18:11:34.350Z,14.10
2019-05-07T18:17:02.163Z,13.33
2019-05-07T18:22:07.068Z,13.47
2019-05-07T18:27:12.668Z,13.40
2019-05-07T18:32:14.413Z,14.13
2019-05-07T18:37:19.292Z,13.53
2019-05-07T18:42:23.407Z,14.33
2019-05-07T18:47:26.921Z,14.00
2019-05-07T18:52:29.142Z,14.60
2019-05-07T18:57:32.800Z,14.13
2019-05-07T19:02:35.208Z,14.73
2019-05-07T19:07:41.694Z,14.97
2019-05-07T19:12:44.561Z,14.30
2019-05-07T19:17:48.108Z,15.47
2019-05-07T19:22:51.850Z,14.90
2019-05-07T19:27:56.390Z,16.23
2019-05-07T19:32:58.467Z,15.60
2019-05-07T19:38:02.924Z,15.50
2019-05-07T19:43:04.980Z,15.57
2019-05-07T19:48:09.038Z,15.53
2019-05-07T19:53:12.488Z,16.27
2019-05-07T19:58:15.941Z,16.07
2019-05-07T20:03:19.346Z,16.07
2019-05-07T20:08:21.281Z,16.67
2019-05-07T20:13:23.547Z,17.07
2019-05-07T20:18:25.496Z,16.30
2019-05-07T20:23:27.573Z,16.83
2019-05-07T20:28:32.613Z,18.17
2019-05-07T20:33:36.349Z,17.80
2019-05-07T20:38:38.308Z,18.93
2019-05-07T20:43:42.679Z,18.87
2019-05-07T20:48:44.159Z,19.00
2019-05-07T20:54:17.712Z,19.10
2019-05-07T20:59:24.312Z,18.73
2019-05-07T21:04:32.818Z,19.10
2019-05-07T21:09:35.372Z,19.50
2019-05-07T21:14:37.409Z,19.33
2019-05-07T21:19:42.451Z,18.80
2019-05-07T21:24:47.036Z,19.33
2019-05-07T21:29:52.739Z,19.57
2019-05-07T21:34:56.747Z,18.90
2019-05-07T21:39:58.672Z,18.70
2019-05-07T21:45:03.002Z,19.83
2019-05-07T21:50:09.763Z,18.57
2019-05-07T21:55:38.161Z,19.13
2019-05-07T22:00:54.710Z,19.80
2019-05-07T22:05:56.802Z,19.10
2019-05-07T22:10:59.038Z,20.00
2019-05-07T22:16:02.568Z,19.47
2019-05-07T22:21:04.841Z,19.37
2019-05-07T22:26:20.156Z,19.53
2019-05-07T22:31:35.062Z,19.70
2019-05-07T22:36:37.252Z,18.07
2019-05-07T22:41:39.268Z,19.17
2019-05-07T22:46:42.719Z,20.77
2019-05-07T22:51:44.733Z,18.80
2019-05-07T22:57:16.798Z,20.90
2019-05-07T23:02:18.627Z,19.40
2019-05-07T23:07:22.766Z,19.47
2019-05-07T23:12:24.703Z,19.40
2019-05-07T23:17:26.566Z,22.43
2019-05-07T23:22:29.628Z,19.83
2019-05-07T23:27:33.433Z,20.27
2019-05-07T23:32:35.557Z,19.03
2019-05-07T23:37:37.496Z,19.23
2019-05-07T23:42:42.403Z,19.07
2019-05-07T23:47:46.087Z,19.27
2019-05-07T23:52:48.125Z,19.97
2019-05-07T23:57:52.385Z,19.70
